Time;durP1;ratioP1;P1;durP2;ratioP2;P2;SDS_P1;SDS_P2;PMS_P1;PMS_P2;Temp;Humidity;BMP_temperature;BMP_pressure;BME280_temperature;BME280_humidity;BME280_pressure;Samples;Min_cycle;Max_cycle;Signal;HPM_P1;HPM_P2
2022/05/22 00:01:32;;;;;;;;;;;14.80;48.30;;;;;;5057889;28;19916;-85
2022/05/22 00:03:57;;;;;;;;;;;14.70;48.40;;;;;;5056641;28;19916;-86
2022/05/22 00:06:23;;;;;;;;;;;14.70;48.40;;;;;;5074311;28;19916;-86
2022/05/22 00:08:48;;;;;;;;;;;14.70;48.50;;;;;;5074691;28;19917;-86
2022/05/22 00:11:13;;;;;;;;;;;14.60;48.60;;;;;;5056376;28;20288;-86
2022/05/22 00:13:39;;;;;;;;;;;14.60;48.70;;;;;;5056257;28;19997;-84
2022/05/22 00:18:48;;;;;;;;;;;14.50;48.90;;;;;;5075075;28;19920;-85
2022/05/22 00:21:14;;;;;;;;;;;14.50;49.00;;;;;;5052560;28;19917;-86
2022/05/22 00:23:39;;;;;;;;;;;14.50;49.10;;;;;;5054148;28;19919;-86
2022/05/22 00:26:05;;;;;;;;;;;14.40;49.40;;;;;;5054472;28;19913;-87
2022/05/22 00:28:30;;;;;;;;;;;14.40;49.40;;;;;;5052743;28;19974;-85
2022/05/22 00:30:55;;;;;;;;;;;14.40;49.50;;;;;;5054647;28;20380;-84
2022/05/22 00:33:21;;;;;;;;;;;14.40;49.50;;;;;;5052589;28;20315;-86
2022/05/22 00:35:46;;;;;;;;;;;14.40;49.40;;;;;;5053009;28;20381;-84
2022/05/22 00:38:12;;;;;;;;;;;14.30;49.40;;;;;;5053614;28;19908;-85
2022/05/22 00:40:37;;;;;;;;;;;14.30;49.40;;;;;;5052698;28;20043;-85
2022/05/22 00:43:03;;;;;;;;;;;14.30;49.50;;;;;;5052470;28;20276;-85
2022/05/22 00:45:28;;;;;;;;;;;14.30;49.60;;;;;;5052162;28;19975;-84
2022/05/22 00:47:54;;;;;;;;;;;14.30;49.70;;;;;;5051835;28;19951;-85
2022/05/22 00:50:21;;;;;;;;;;;14.30;49.70;;;;;;5054140;28;19925;-86
2022/05/22 00:52:53;;;;;;;;;;;14.30;49.80;;;;;;5052884;28;20323;-85
2022/05/22 00:55:24;;;;;;;;;;;14.30;50.10;;;;;;5051560;28;20395;-85
2022/05/22 00:57:52;;;;;;;;;;;14.40;50.00;;;;;;5052873;28;19917;-85
2022/05/22 01:00:19;;;;;;;;;;;14.40;50.00;;;;;;5051896;28;19946;-85
2022/05/22 01:05:30;;;;;;;;;;;14.30;50.10;;;;;;5053506;28;19975;-85
2022/05/22 01:07:57;;;;;;;;;;;14.30;50.10;;;;;;5068574;28;19929;-85
2022/05/22 01:10:24;;;;;;;;;;;14.30;50.20;;;;;;5035039;28;19917;-85
2022/05/22 01:12:50;;;;;;;;;;;14.30;50.10;;;;;;5068781;28;19928;-85
2022/05/22 01:15:15;;;;;;;;;;;14.30;50.10;;;;;;5068299;28;20412;-84
2022/05/22 01:17:45;;;;;;;;;;;14.30;50.20;;;;;;5035626;28;20011;-86
2022/05/22 01:20:12;;;;;;;;;;;14.30;50.20;;;;;;5038631;28;19931;-85
2022/05/22 01:22:38;;;;;;;;;;;14.30;50.30;;;;;;5038558;28;19967;-84
2022/05/22 01:25:04;;;;;;;;;;;14.20;50.30;;;;;;5056611;28;19925;-85
2022/05/22 01:27:29;;;;;;;;;;;14.30;50.30;;;;;;5038308;28;19913;-85
2022/05/22 01:30:04;;;;;;;;;;;14.30;50.40;;;;;;5056394;28;19921;-85
2022/05/22 01:32:32;;;;;;;;;;;14.30;50.40;;;;;;5056077;28;19912;-84
2022/05/22 01:34:58;;;;;;;;;;;14.20;50.40;;;;;;5056535;28;19921;-84
2022/05/22 01:37:23;;;;;;;;;;;14.20;50.50;;;;;;5056658;28;19952;-85
2022/05/22 01:39:49;;;;;;;;;;;14.20;50.60;;;;;;5037975;28;19927;-85
2022/05/22 01:42:14;;;;;;;;;;;14.20;50.70;;;;;;5056421;28;19920;-85
2022/05/22 01:44:39;;;;;;;;;;;14.20;50.70;;;;;;5056019;28;19928;-84
2022/05/22 01:47:05;;;;;;;;;;;14.20;50.80;;;;;;5056298;28;19913;-85
2022/05/22 01:49:30;;;;;;;;;;;14.20;50.80;;;;;;5056395;28;20023;-85
2022/05/22 01:51:56;;;;;;;;;;;14.10;50.80;;;;;;5056276;28;20362;-86
2022/05/22 01:54:21;;;;;;;;;;;14.10;50.70;;;;;;5056891;28;19924;-86
2022/05/22 01:56:47;;;;;;;;;;;14.10;50.70;;;;;;5056157;28;20012;-86
2022/05/22 01:59:12;;;;;;;;;;;14.00;50.70;;;;;;5056321;28;19924;-86
2022/05/22 02:01:38;;;;;;;;;;;14.00;50.70;;;;;;5056182;28;19970;-86
2022/05/22 02:04:04;;;;;;;;;;;14.00;50.70;;;;;;5075166;28;19921;-85
2022/05/22 02:06:32;;;;;;;;;;;13.90;50.70;;;;;;5076355;28;19958;-85
2022/05/22 02:08:58;;;;;;;;;;;13.90;50.80;;;;;;5076287;28;20376;-85
2022/05/22 02:11:23;;;;;;;;;;;13.80;50.90;;;;;;5075691;28;19912;-85
2022/05/22 02:13:49;;;;;;;;;;;13.80;50.90;;;;;;5075842;28;19921;-86
2022/05/22 02:16:15;;;;;;;;;;;13.80;51.00;;;;;;5057349;28;20410;-86
2022/05/22 02:18:40;;;;;;;;;;;13.70;51.00;;;;;;5075777;28;19942;-85
2022/05/22 02:21:06;;;;;;;;;;;13.70;51.10;;;;;;5075596;28;19912;-85
2022/05/22 02:23:32;;;;;;;;;;;13.70;51.10;;;;;;5057100;28;19952;-85
2022/05/22 02:25:58;;;;;;;;;;;13.60;51.10;;;;;;5076019;28;19931;-86
2022/05/22 02:28:25;;;;;;;;;;;13.60;51.20;;;;;;5075170;28;19974;-85
2022/05/22 02:30:52;;;;;;;;;;;13.50;51.20;;;;;;5057718;28;19924;-86
2022/05/22 02:33:18;;;;;;;;;;;13.50;51.20;;;;;;5074984;28;20023;-85
2022/05/22 02:35:43;;;;;;;;;;;13.40;51.20;;;;;;5075357;28;19946;-85
2022/05/22 02:38:10;;;;;;;;;;;13.40;51.20;;;;;;5075282;28;19912;-86
2022/05/22 02:40:36;;;;;;;;;;;13.30;51.30;;;;;;5075361;28;20261;-85
2022/05/22 02:43:02;;;;;;;;;;;13.30;51.30;;;;;;5057439;28;19909;-85
2022/05/22 02:45:29;;;;;;;;;;;13.30;51.30;;;;;;5057273;28;19920;-85
2022/05/22 02:47:55;;;;;;;;;;;13.20;51.30;;;;;;5075153;28;20277;-85
2022/05/22 02:50:22;;;;;;;;;;;13.10;51.30;;;;;;5075107;28;19931;-86
2022/05/22 02:52:47;;;;;;;;;;;13.10;51.40;;;;;;5056596;28;19908;-85
2022/05/22 02:55:13;;;;;;;;;;;13.10;51.50;;;;;;5057286;28;19916;-86
2022/05/22 02:57:40;;;;;;;;;;;13.00;51.50;;;;;;5075499;28;19999;-86
2022/05/22 03:00:07;;;;;;;;;;;13.00;51.60;;;;;;5075380;28;19916;-86
2022/05/22 03:02:33;;;;;;;;;;;13.00;51.60;;;;;;5056741;28;20364;-85
2022/05/22 03:04:58;;;;;;;;;;;12.90;51.70;;;;;;5057012;28;19916;-86
2022/05/22 03:07:23;;;;;;;;;;;12.90;51.80;;;;;;5056918;28;19919;-85
2022/05/22 03:09:49;;;;;;;;;;;12.80;51.80;;;;;;5056607;28;19924;-85
2022/05/22 03:12:16;;;;;;;;;;;12.80;51.80;;;;;;5056816;28;19913;-85
2022/05/22 03:14:43;;;;;;;;;;;12.70;51.80;;;;;;5075013;28;19920;-86
2022/05/22 03:17:08;;;;;;;;;;;12.70;51.80;;;;;;5075011;28;19913;-86
2022/05/22 03:19:34;;;;;;;;;;;12.70;51.80;;;;;;5056893;28;20035;-85
2022/05/22 03:21:59;;;;;;;;;;;12.70;51.80;;;;;;5074538;28;19916;-86
2022/05/22 03:24:24;;;;;;;;;;;12.60;52.00;;;;;;5074790;28;19913;-85
2022/05/22 03:26:50;;;;;;;;;;;12.60;52.10;;;;;;5074550;28;19920;-85
2022/05/22 03:29:16;;;;;;;;;;;12.60;52.30;;;;;;5074796;28;19931;-85
2022/05/22 03:31:41;;;;;;;;;;;12.60;52.50;;;;;;5056449;28;20014;-85
2022/05/22 03:34:07;;;;;;;;;;;12.60;52.40;;;;;;5074851;28;20330;-84
2022/05/22 03:36:32;;;;;;;;;;;12.50;52.50;;;;;;5056505;28;19956;-85
2022/05/22 03:38:57;;;;;;;;;;;12.50;52.50;;;;;;5074575;28;19921;-85
2022/05/22 03:41:23;;;;;;;;;;;12.50;52.60;;;;;;5073964;28;19954;-85
2022/05/22 03:43:50;;;;;;;;;;;12.60;52.90;;;;;;5075105;28;19996;-85
2022/05/22 03:46:15;;;;;;;;;;;12.70;53.30;;;;;;5056806;28;20430;-85
2022/05/22 03:48:41;;;;;;;;;;;12.80;54.10;;;;;;5056103;28;19962;-86
2022/05/22 03:51:06;;;;;;;;;;;13.00;54.90;;;;;;5074320;28;20368;-83
2022/05/22 03:53:32;;;;;;;;;;;13.30;55.40;;;;;;5073954;28;19928;-85
2022/05/22 03:55:57;;;;;;;;;;;13.50;55.60;;;;;;5056172;28;20320;-84
2022/05/22 03:58:23;;;;;;;;;;;13.70;55.90;;;;;;5055689;28;19925;-85
2022/05/22 04:00:48;;;;;;;;;;;14.00;56.20;;;;;;5073651;28;20068;-85
2022/05/22 04:03:13;;;;;;;;;;;14.30;56.50;;;;;;5055977;28;19912;-85
2022/05/22 04:05:39;;;;;;;;;;;14.60;56.80;;;;;;5056338;28;19947;-85
2022/05/22 04:08:05;;;;;;;;;;;15.00;56.90;;;;;;5055871;28;19909;-85
2022/05/22 04:10:30;;;;;;;;;;;15.20;56.90;;;;;;5055940;28;20375;-85
2022/05/22 04:12:56;;;;;;;;;;;15.50;56.80;;;;;;5073516;28;19909;-86
2022/05/22 04:15:21;;;;;;;;;;;15.80;57.00;;;;;;5074178;28;19916;-85
2022/05/22 04:17:47;;;;;;;;;;;16.20;57.20;;;;;;5055807;28;20367;-85
2022/05/22 04:20:14;;;;;;;;;;;16.50;57.40;;;;;;5056549;28;19920;-85
2022/05/22 04:25:23;;;;;;;;;;;17.30;57.10;;;;;;5073661;28;20403;-85
2022/05/22 04:27:49;;;;;;;;;;;17.70;56.90;;;;;;5073927;28;19916;-84
2022/05/22 04:30:18;;;;;;;;;;;18.10;56.70;;;;;;5055730;28;19916;-84
2022/05/22 04:32:45;;;;;;;;;;;18.50;56.90;;;;;;5055770;28;19909;-86
2022/05/22 04:35:10;;;;;;;;;;;18.90;56.70;;;;;;5073952;28;19921;-85
2022/05/22 04:37:36;;;;;;;;;;;19.30;56.50;;;;;;5055881;28;20255;-85
2022/05/22 04:40:02;;;;;;;;;;;19.70;56.20;;;;;;5055657;28;19924;-85
2022/05/22 04:42:27;;;;;;;;;;;20.10;55.80;;;;;;5055721;28;19909;-85
2022/05/22 04:44:53;;;;;;;;;;;20.40;55.40;;;;;;5072115;28;19924;-86
2022/05/22 04:47:18;;;;;;;;;;;20.80;54.90;;;;;;5073542;28;20011;-84
2022/05/22 04:49:47;;;;;;;;;;;21.20;54.60;;;;;;5063586;28;19964;-85
2022/05/22 04:52:12;;;;;;;;;;;21.50;53.30;;;;;;5054007;28;19961;-86
2022/05/22 04:54:38;;;;;;;;;;;21.70;52.70;;;;;;5055525;28;20368;-85
2022/05/22 04:57:04;;;;;;;;;;;22.00;52.50;;;;;;5054885;28;19912;-86
2022/05/22 04:59:29;;;;;;;;;;;22.30;52.40;;;;;;5055291;28;20327;-86
2022/05/22 05:01:54;;;;;;;;;;;22.70;52.00;;;;;;5055093;28;19987;-86
2022/05/22 05:04:20;;;;;;;;;;;23.00;51.60;;;;;;5073396;28;19927;-86
2022/05/22 05:06:45;;;;;;;;;;;23.30;51.00;;;;;;5072688;28;19966;-86
2022/05/22 05:09:11;;;;;;;;;;;23.60;50.40;;;;;;5073009;28;19917;-85
2022/05/22 05:11:37;;;;;;;;;;;23.90;49.70;;;;;;5073472;28;19918;-85
2022/05/22 05:14:02;;;;;;;;;;;24.20;49.20;;;;;;5071972;28;20003;-86
2022/05/22 05:16:28;;;;;;;;;;;24.50;48.40;;;;;;5071638;28;19912;-86
2022/05/22 05:18:55;;;;;;;;;;;24.80;47.70;;;;;;5071280;28;19920;-86
2022/05/22 05:21:21;;;;;;;;;;;25.20;47.10;;;;;;5071557;28;20070;-86
2022/05/22 05:23:46;;;;;;;;;;;25.60;46.60;;;;;;5071169;28;19955;-86
2022/05/22 05:26:12;;;;;;;;;;;26.00;46.00;;;;;;5072769;28;19961;-87
2022/05/22 05:28:38;;;;;;;;;;;26.30;44.90;;;;;;5052437;28;19917;-87
2022/05/22 05:31:03;;;;;;;;;;;26.70;44.30;;;;;;5055031;28;19912;-87
2022/05/22 05:33:32;;;;;;;;;;;27.10;43.80;;;;;;5072509;28;20410;-86
2022/05/22 05:35:58;;;;;;;;;;;27.60;43.20;;;;;;5054628;28;19917;-85
2022/05/22 05:38:23;;;;;;;;;;;28.00;42.40;;;;;;5072584;28;20011;-85
2022/05/22 05:40:49;;;;;;;;;;;28.30;41.30;;;;;;5072757;28;19916;-85
2022/05/22 05:43:15;;;;;;;;;;;28.60;40.00;;;;;;5054887;28;19947;-86
2022/05/22 05:45:41;;;;;;;;;;;28.80;39.30;;;;;;5054735;28;20583;-85
2022/05/22 05:48:07;;;;;;;;;;;29.20;38.90;;;;;;5087773;28;19908;-85
2022/05/22 05:50:32;;;;;;;;;;;29.40;37.80;;;;;;5093072;28;20003;-85
2022/05/22 05:52:59;;;;;;;;;;;29.70;37.20;;;;;;5074362;28;20312;-85
2022/05/22 05:55:25;;;;;;;;;;;30.00;37.00;;;;;;5093350;28;20263;-85
2022/05/22 05:57:51;;;;;;;;;;;30.40;36.80;;;;;;5092755;28;19919;-85
2022/05/22 06:00:18;;;;;;;;;;;30.80;36.10;;;;;;5092523;28;19958;-85
2022/05/22 06:02:43;;;;;;;;;;;31.20;35.40;;;;;;5092882;28;19908;-85
2022/05/22 06:05:12;;;;;;;;;;;31.60;34.70;;;;;;5077961;28;19923;-85
2022/05/22 06:07:38;;;;;;;;;;;32.00;34.20;;;;;;5096143;28;20280;-84
2022/05/22 06:10:05;;;;;;;;;;;32.30;33.20;;;;;;5077503;28;19923;-84
2022/05/22 06:12:30;;;;;;;;;;;32.70;32.10;;;;;;5077652;28;19952;-85
2022/05/22 06:14:56;;;;;;;;;;;33.00;31.10;;;;;;5095940;28;19915;-85
2022/05/22 06:17:31;;;;;;;;;;;33.30;30.50;;;;;;5096009;28;19977;-86
2022/05/22 06:19:59;;;;;;;;;;;33.60;30.00;;;;;;5078076;28;19916;-85
2022/05/22 06:22:28;;;;;;;;;;;33.90;29.30;;;;;;5077777;28;19918;-85
2022/05/22 06:24:54;;;;;;;;;;;34.20;28.90;;;;;;5078199;28;19912;-84
2022/05/22 06:27:20;;;;;;;;;;;34.30;28.00;;;;;;5077969;28;19916;-84
2022/05/22 06:29:46;;;;;;;;;;;34.50;27.80;;;;;;5095690;28;19953;-85
2022/05/22 06:32:13;;;;;;;;;;;34.80;27.60;;;;;;5077309;28;19939;-85
2022/05/22 06:34:41;;;;;;;;;;;35.10;27.60;;;;;;5077987;28;19915;-85
2022/05/22 06:37:08;;;;;;;;;;;35.40;26.70;;;;;;5096162;28;19923;-85
2022/05/22 06:39:50;;;;;;;;;;;35.70;26.20;;;;;;5077360;28;20020;-85
2022/05/22 06:42:28;;;;;;;;;;;35.90;25.70;;;;;;5077335;28;20649;-85
2022/05/22 06:44:56;;;;;;;;;;;36.10;24.60;;;;;;5088116;28;19919;-85
2022/05/22 06:47:23;;;;;;;;;;;36.30;24.50;;;;;;5074556;28;19955;-86
2022/05/22 06:49:49;;;;;;;;;;;36.60;24.20;;;;;;5074861;28;19920;-86
2022/05/22 06:52:15;;;;;;;;;;;36.80;24.10;;;;;;5075075;28;19917;-86
2022/05/22 06:54:41;;;;;;;;;;;37.00;23.60;;;;;;5075275;28;19916;-86
2022/05/22 06:57:06;;;;;;;;;;;37.20;23.30;;;;;;5073588;28;19965;-86
2022/05/22 06:59:32;;;;;;;;;;;37.40;23.10;;;;;;5073763;28;19920;-86
2022/05/22 07:01:59;;;;;;;;;;;37.70;22.90;;;;;;5066124;28;19998;-84
2022/05/22 07:04:24;;;;;;;;;;;37.80;22.60;;;;;;5053295;28;19972;-85
2022/05/22 07:06:50;;;;;;;;;;;38.10;22.40;;;;;;5053862;28;19937;-86
2022/05/22 07:09:16;;;;;;;;;;;38.30;22.30;;;;;;5094151;28;19954;-85
2022/05/22 07:11:41;;;;;;;;;;;38.60;21.20;;;;;;5076869;28;19951;-85
2022/05/22 07:14:07;;;;;;;;;;;38.90;20.80;;;;;;5076731;28;20036;-85
2022/05/22 07:16:34;;;;;;;;;;;39.10;20.90;;;;;;5076423;28;20275;-85
2022/05/22 07:18:59;;;;;;;;;;;39.30;20.30;;;;;;5073559;28;19960;-86
2022/05/22 07:21:35;;;;;;;;;;;39.40;18.90;;;;;;5077278;28;19978;-85
2022/05/22 07:24:12;;;;;;;;;;;39.50;18.50;;;;;;5084894;28;19990;-85
2022/05/22 07:26:38;;;;;;;;;;;39.50;18.70;;;;;;5054626;28;19966;-84
2022/05/22 07:29:03;;;;;;;;;;;39.70;18.60;;;;;;5056420;28;19925;-85
2022/05/22 07:31:29;;;;;;;;;;;39.60;19.00;;;;;;5052922;28;19913;-86
2022/05/22 07:33:55;;;;;;;;;;;39.60;19.20;;;;;;5056375;28;20034;-86
2022/05/22 07:36:21;;;;;;;;;;;39.50;19.20;;;;;;5056461;28;19916;-86
2022/05/22 07:38:47;;;;;;;;;;;39.40;19.60;;;;;;5082541;28;20368;-86
2022/05/22 07:41:12;;;;;;;;;;;39.50;19.80;;;;;;5074487;28;19916;-86
2022/05/22 07:43:39;;;;;;;;;;;39.70;19.70;;;;;;5055862;28;19921;-86
2022/05/22 07:46:05;;;;;;;;;;;40.00;19.20;;;;;;5078823;28;19919;-86
2022/05/22 07:48:31;;;;;;;;;;;40.00;18.70;;;;;;5066323;28;19928;-86
2022/05/22 07:50:59;;;;;;;;;;;40.20;18.80;;;;;;5057052;28;19912;-86
2022/05/22 07:53:24;;;;;;;;;;;40.40;19.10;;;;;;5076882;28;19924;-87
2022/05/22 07:55:50;;;;;;;;;;;40.70;18.30;;;;;;5058755;28;19921;-88
2022/05/22 07:58:25;;;;;;;;;;;40.80;17.70;;;;;;5057222;28;19928;-87
2022/05/22 08:00:51;;;;;;;;;;;41.10;17.50;;;;;;5076136;28;19912;-87
2022/05/22 08:03:17;;;;;;;;;;;41.20;17.20;;;;;;5075781;28;20029;-86
2022/05/22 08:05:42;;;;;;;;;;;41.20;17.00;;;;;;5074568;28;19995;-85
2022/05/22 08:08:09;;;;;;;;;;;41.20;17.50;;;;;;5074237;28;20324;-86
2022/05/22 08:10:36;;;;;;;;;;;41.30;17.70;;;;;;5056945;28;20016;-86
2022/05/22 08:13:02;;;;;;;;;;;41.50;17.70;;;;;;5074534;28;19920;-86
2022/05/22 08:15:30;;;;;;;;;;;41.70;17.50;;;;;;5089514;28;20356;-86
2022/05/22 08:17:57;;;;;;;;;;;42.00;17.60;;;;;;5074214;28;19916;-85
2022/05/22 08:20:25;;;;;;;;;;;42.10;17.20;;;;;;5074389;28;20322;-87
2022/05/22 08:22:55;;;;;;;;;;;42.20;16.50;;;;;;5074046;28;20364;-87
2022/05/22 08:25:21;;;;;;;;;;;42.00;16.10;;;;;;5056613;28;19927;-87
2022/05/22 08:27:46;;;;;;;;;;;41.90;16.30;;;;;;5056136;28;19969;-86
2022/05/22 08:30:14;;;;;;;;;;;42.00;16.30;;;;;;5074179;28;19916;-87
2022/05/22 08:32:40;;;;;;;;;;;42.10;16.30;;;;;;5057159;28;19931;-86
2022/05/22 08:35:06;;;;;;;;;;;42.10;16.50;;;;;;5073951;28;20015;-87
2022/05/22 08:37:34;;;;;;;;;;;42.30;16.60;;;;;;5073971;28;19916;-86
2022/05/22 08:39:59;;;;;;;;;;;42.50;16.30;;;;;;5056103;28;20030;-87
2022/05/22 08:42:33;;;;;;;;;;;42.60;15.50;;;;;;5074103;28;19918;-87
2022/05/22 08:44:58;;;;;;;;;;;42.50;14.80;;;;;;5074171;28;19917;-86
2022/05/22 08:47:31;;;;;;;;;;;42.20;15.00;;;;;;5068614;28;19924;-87
2022/05/22 08:49:59;;;;;;;;;;;42.10;15.40;;;;;;5065301;28;20392;-85
2022/05/22 08:52:24;;;;;;;;;;;42.10;15.40;;;;;;5069167;28;19921;-87
2022/05/22 08:54:53;;;;;;;;;;;42.10;14.90;;;;;;5074935;28;19936;-87
2022/05/22 09:00:06;;;;;;;;;;;42.20;15.30;;;;;;5074097;28;19923;-87
2022/05/22 09:03:07;;;;;;;;;;;42.10;15.40;;;;;;5053236;28;19925;-88
2022/05/22 09:05:34;;;;;;;;;;;42.20;15.90;;;;;;5011822;28;20372;-87
2022/05/22 09:08:03;;;;;;;;;;;42.70;15.60;;;;;;5039067;28;19967;-89
2022/05/22 09:10:47;;;;;;;;;;;42.80;14.80;;;;;;5053841;28;20033;-88
2022/05/22 09:13:20;;;;;;;;;;;42.80;14.80;;;;;;5055863;28;19990;-87
2022/05/22 09:15:51;;;;;;;;;;;42.90;14.90;;;;;;5081863;28;19912;-92
2022/05/22 09:18:21;;;;;;;;;;;43.00;15.30;;;;;;5053344;28;19955;-87
2022/05/22 09:21:00;;;;;;;;;;;43.00;14.90;;;;;;5082220;28;19916;-87
2022/05/22 09:23:26;;;;;;;;;;;43.20;14.90;;;;;;5073999;28;20604;-89
2022/05/22 09:25:51;;;;;;;;;;;43.30;15.00;;;;;;5069184;28;19916;-88
2022/05/22 09:28:20;;;;;;;;;;;43.30;14.90;;;;;;5067917;28;19927;-89
2022/05/22 09:30:57;;;;;;;;;;;43.50;14.90;;;;;;5074339;28;19916;-88
2022/05/22 09:33:25;;;;;;;;;;;43.60;14.50;;;;;;5078176;28;20005;-87
2022/05/22 09:35:50;;;;;;;;;;;43.80;14.80;;;;;;5078928;28;19916;-88
2022/05/22 09:38:25;;;;;;;;;;;44.10;14.70;;;;;;5075262;28;20073;-88
2022/05/22 09:40:54;;;;;;;;;;;44.00;13.70;;;;;;5078486;28;19940;-89
2022/05/22 09:43:34;;;;;;;;;;;43.70;13.60;;;;;;5062922;28;20206;-88
2022/05/22 09:45:59;;;;;;;;;;;43.20;13.30;;;;;;5076439;28;19913;-88
2022/05/22 09:48:37;;;;;;;;;;;42.90;13.80;;;;;;5055326;28;19931;-88
2022/05/22 09:51:07;;;;;;;;;;;42.80;14.20;;;;;;5073465;28;20055;-88
2022/05/22 09:53:52;;;;;;;;;;;43.00;14.30;;;;;;5074337;28;19916;-85
2022/05/22 09:56:41;;;;;;;;;;;43.30;14.50;;;;;;5072201;28;19938;-86
2022/05/22 09:59:21;;;;;;;;;;;43.60;14.50;;;;;;5076478;28;19920;-87
2022/05/22 10:01:50;;;;;;;;;;;43.80;14.40;;;;;;5066326;28;20331;-87
2022/05/22 10:04:35;;;;;;;;;;;44.10;14.10;;;;;;5079298;28;19943;-88
2022/05/22 10:07:06;;;;;;;;;;;44.10;13.50;;;;;;5080587;28;19916;-87
2022/05/22 10:09:37;;;;;;;;;;;43.80;13.50;;;;;;5063816;28;20321;-87
2022/05/22 10:12:12;;;;;;;;;;;44.00;13.60;;;;;;5060906;28;20421;-86
2022/05/22 10:14:43;;;;;;;;;;;44.20;13.80;;;;;;5071432;28;19912;-87
2022/05/22 10:17:23;;;;;;;;;;;44.20;13.50;;;;;;5075278;28;20410;-88
2022/05/22 10:20:07;;;;;;;;;;;44.20;13.60;;;;;;5084697;28;20003;-88
2022/05/22 10:22:51;;;;;;;;;;;44.30;13.40;;;;;;5051195;28;19921;-88
2022/05/22 10:25:26;;;;;;;;;;;44.40;13.50;;;;;;5078990;28;19970;-87
2022/05/22 10:27:52;;;;;;;;;;;44.50;13.60;;;;;;5066406;28;20363;-86
2022/05/22 10:30:23;;;;;;;;;;;44.60;13.70;;;;;;5080959;28;19921;-88
2022/05/22 10:32:49;;;;;;;;;;;44.70;13.60;;;;;;5084764;28;20356;-87
2022/05/22 10:35:14;;;;;;;;;;;44.90;13.70;;;;;;5075700;28;19986;-88
2022/05/22 10:37:47;;;;;;;;;;;45.10;13.90;;;;;;5071587;28;19925;-88
2022/05/22 10:40:14;;;;;;;;;;;45.30;13.70;;;;;;5093454;28;20003;-88
2022/05/22 10:42:47;;;;;;;;;;;45.50;13.80;;;;;;5077582;28;19916;-88
2022/05/22 10:45:18;;;;;;;;;;;45.70;13.80;;;;;;5091604;28;19964;-87
2022/05/22 10:47:43;;;;;;;;;;;46.00;13.80;;;;;;5076186;28;19912;-88
2022/05/22 10:50:14;;;;;;;;;;;46.20;13.00;;;;;;5086831;28;19935;-87
2022/05/22 10:52:39;;;;;;;;;;;45.20;12.40;;;;;;5062597;28;19920;-90
2022/05/22 10:55:15;;;;;;;;;;;44.30;13.00;;;;;;5069911;28;20283;-89
2022/05/22 10:57:41;;;;;;;;;;;44.20;13.30;;;;;;5072522;28;19916;-87
2022/05/22 11:00:14;;;;;;;;;;;44.10;13.40;;;;;;5054119;28;19934;-87
2022/05/22 11:02:40;;;;;;;;;;;44.20;13.50;;;;;;5073411;28;19927;-88
2022/05/22 11:05:14;;;;;;;;;;;44.30;13.40;;;;;;5054460;28;19921;-87
2022/05/22 11:07:45;;;;;;;;;;;43.80;13.30;;;;;;5075286;28;19917;-87
2022/05/22 11:10:13;;;;;;;;;;;42.90;13.10;;;;;;5055755;28;20022;-86
2022/05/22 11:12:39;;;;;;;;;;;42.50;13.50;;;;;;5060062;28;20003;-88
2022/05/22 11:15:10;;;;;;;;;;;42.40;13.60;;;;;;5065152;28;19939;-88
2022/05/22 11:17:36;;;;;;;;;;;42.30;13.50;;;;;;5067087;28;20415;-89
2022/05/22 11:20:12;;;;;;;;;;;42.40;13.70;;;;;;5077508;28;19943;-88
2022/05/22 11:22:37;;;;;;;;;;;42.60;14.00;;;;;;5066020;28;20578;-88
2022/05/22 11:25:20;;;;;;;;;;;42.80;13.40;;;;;;5065591;28;19912;-89
2022/05/22 11:27:57;;;;;;;;;;;42.70;13.70;;;;;;5083604;28;19920;-89
2022/05/22 11:30:22;;;;;;;;;;;42.90;14.00;;;;;;5054176;28;19943;-89
2022/05/22 11:33:07;;;;;;;;;;;42.80;13.80;;;;;;5078437;28;20041;-89
2022/05/22 11:35:38;;;;;;;;;;;42.50;13.80;;;;;;5057552;28;19966;-88
2022/05/22 11:38:29;;;;;;;;;;;42.30;13.80;;;;;;5072934;28;19920;-87
2022/05/22 11:40:55;;;;;;;;;;;41.90;13.70;;;;;;5081988;28;19916;-87
2022/05/22 11:43:27;;;;;;;;;;;41.90;13.90;;;;;;5063595;28;20333;-87
2022/05/22 11:46:11;;;;;;;;;;;42.00;13.90;;;;;;5077948;28;19983;-89
2022/05/22 11:48:58;;;;;;;;;;;42.00;14.00;;;;;;5076469;28;19923;-91
2022/05/22 11:51:34;;;;;;;;;;;42.10;13.80;;;;;;5074892;28;20372;-87
2022/05/22 11:54:06;;;;;;;;;;;42.10;13.90;;;;;;5075466;28;20288;-85
2022/05/22 11:56:39;;;;;;;;;;;42.30;13.80;;;;;;5063015;28;19959;-90
2022/05/22 11:59:11;;;;;;;;;;;42.40;13.50;;;;;;5057244;28;20003;-86
2022/05/22 12:01:37;;;;;;;;;;;42.60;13.70;;;;;;5057679;28;19917;-87
2022/05/22 12:04:21;;;;;;;;;;;42.90;13.60;;;;;;5075643;28;20382;-87
2022/05/22 12:07:04;;;;;;;;;;;43.10;13.40;;;;;;5057705;28;20015;-87
2022/05/22 12:09:35;;;;;;;;;;;43.30;13.50;;;;;;5088795;28;20256;-87
2022/05/22 12:12:19;;;;;;;;;;;43.40;13.50;;;;;;5082024;28;20034;-85
2022/05/22 12:14:45;;;;;;;;;;;43.50;13.50;;;;;;5097507;28;19952;-88
2022/05/22 12:17:13;;;;;;;;;;;43.30;13.30;;;;;;5079925;28;19920;-87
2022/05/22 12:19:51;;;;;;;;;;;43.10;13.30;;;;;;5075355;28;20012;-87
2022/05/22 12:23:07;;;;;;;;;;;43.20;13.40;;;;;;5056769;28;19917;-87
2022/05/22 12:25:13;;;;;;;;;;;43.30;13.20;;;;;;5074886;28;19913;-88
2022/05/22 12:27:39;;;;;;;;;;;43.30;13.10;;;;;;5075494;28;19919;-88
2022/05/22 12:30:13;;;;;;;;;;;43.40;13.30;;;;;;5057408;28;20380;-87
2022/05/22 12:32:44;;;;;;;;;;;43.50;13.20;;;;;;5076672;28;19971;-87
2022/05/22 12:35:11;;;;;;;;;;;43.60;13.20;;;;;;5058019;28;19918;-88
2022/05/22 12:37:44;;;;;;;;;;;43.70;13.00;;;;;;5057881;28;19912;-87
2022/05/22 12:40:10;;;;;;;;;;;43.70;13.10;;;;;;5058421;28;19958;-86
2022/05/22 12:42:37;;;;;;;;;;;43.90;13.10;;;;;;5057488;28;19912;-86
2022/05/22 12:45:03;;;;;;;;;;;44.00;13.20;;;;;;5057348;28;19912;-86
2022/05/22 12:47:41;;;;;;;;;;;43.80;12.90;;;;;;5057573;28;19935;-87
2022/05/22 12:50:07;;;;;;;;;;;42.70;13.00;;;;;;5057298;28;19927;-86
2022/05/22 12:52:32;;;;;;;;;;;41.10;13.60;;;;;;5056929;28;20423;-87
2022/05/22 12:54:59;;;;;;;;;;;39.80;14.30;;;;;;5075812;28;19979;-87
2022/05/22 12:57:25;;;;;;;;;;;38.60;15.00;;;;;;5056822;28;19919;-87
2022/05/22 12:59:52;;;;;;;;;;;37.60;15.60;;;;;;5056367;28;19916;-86
2022/05/22 13:02:25;;;;;;;;;;;36.80;16.20;;;;;;5057468;28;19939;-86
2022/05/22 13:04:52;;;;;;;;;;;36.30;16.70;;;;;;5057349;28;20097;-86
2022/05/22 13:07:27;;;;;;;;;;;36.30;16.90;;;;;;5056545;28;20559;-87
2022/05/22 13:09:54;;;;;;;;;;;36.80;17.00;;;;;;5057769;28;19995;-86
2022/05/22 13:12:30;;;;;;;;;;;37.20;16.90;;;;;;5075461;28;20348;-86
2022/05/22 13:14:58;;;;;;;;;;;37.40;16.90;;;;;;5077538;28;19909;-86
2022/05/22 13:17:39;;;;;;;;;;;37.40;16.70;;;;;;5078237;28;19912;-86
2022/05/22 13:20:07;;;;;;;;;;;37.30;16.90;;;;;;5078338;28;19908;-86
2022/05/22 13:22:33;;;;;;;;;;;37.20;17.30;;;;;;5078074;28;19917;-86
2022/05/22 13:24:59;;;;;;;;;;;36.60;17.40;;;;;;5078659;28;19995;-87
2022/05/22 13:27:38;;;;;;;;;;;36.40;17.60;;;;;;5063100;28;19912;-86
2022/05/22 13:30:14;;;;;;;;;;;36.40;17.70;;;;;;5083094;28;19991;-86
2022/05/22 13:32:44;;;;;;;;;;;36.50;17.50;;;;;;5063444;28;19917;-87
2022/05/22 13:35:18;;;;;;;;;;;36.70;17.50;;;;;;5061490;28;20371;-87
2022/05/22 13:37:46;;;;;;;;;;;37.20;17.40;;;;;;5063535;28;19924;-86
2022/05/22 13:40:14;;;;;;;;;;;37.50;17.10;;;;;;5064290;28;19944;-88
2022/05/22 13:42:59;;;;;;;;;;;37.60;16.80;;;;;;5081871;28;19917;-86
2022/05/22 13:45:28;;;;;;;;;;;37.30;16.80;;;;;;5082643;28;20397;-87
2022/05/22 13:47:54;;;;;;;;;;;36.90;17.00;;;;;;5080389;28;19916;-87
2022/05/22 13:53:07;;;;;;;;;;;36.50;17.30;;;;;;5079710;28;19927;-88
2022/05/22 13:55:38;;;;;;;;;;;36.40;17.30;;;;;;5063471;28;19912;-87
2022/05/22 13:58:08;;;;;;;;;;;36.20;17.30;;;;;;5062161;28;19916;-86
2022/05/22 14:00:35;;;;;;;;;;;35.90;17.40;;;;;;5062899;28;20055;-86
2022/05/22 14:03:02;;;;;;;;;;;35.80;17.70;;;;;;5078260;28;19921;-86
2022/05/22 14:05:36;;;;;;;;;;;36.00;17.50;;;;;;5060054;28;19916;-86
2022/05/22 14:08:08;;;;;;;;;;;35.90;17.50;;;;;;5059502;28;19954;-86
2022/05/22 14:10:34;;;;;;;;;;;35.80;17.70;;;;;;5059161;28;19923;-86
2022/05/22 14:13:12;;;;;;;;;;;35.80;17.60;;;;;;5060021;28;19990;-85
2022/05/22 14:15:38;;;;;;;;;;;35.60;17.70;;;;;;5059830;28;19919;-86
2022/05/22 14:18:13;;;;;;;;;;;35.20;17.60;;;;;;5079011;28;19995;-85
2022/05/22 14:20:40;;;;;;;;;;;34.70;18.00;;;;;;5061306;28;19955;-87
2022/05/22 14:23:29;;;;;;;;;;;34.20;18.30;;;;;;5078522;28;19955;-85
2022/05/22 14:25:56;;;;;;;;;;;33.60;18.80;;;;;;5052835;28;19963;-87
2022/05/22 14:28:26;;;;;;;;;;;33.10;19.30;;;;;;5060798;28;19938;-86
2022/05/22 14:30:51;;;;;;;;;;;32.70;19.60;;;;;;5061052;28;20360;-86
2022/05/22 14:33:19;;;;;;;;;;;32.20;20.00;;;;;;5043426;28;19965;-87
2022/05/22 14:35:51;;;;;;;;;;;31.80;20.50;;;;;;5060809;28;19912;-87
2022/05/22 14:38:21;;;;;;;;;;;31.50;20.90;;;;;;5079340;28;20011;-86